Time;durP1;ratioP1;P1;durP2;ratioP2;P2;SDS_P1;SDS_P2;PMS_P1;PMS_P2;Temp;Humidity;BMP_temperature;BMP_pressure;BME280_temperature;BME280_humidity;BME280_pressure;Samples;Min_cycle;Max_cycle;Signal;HPM_P1;HPM_P2
2022/09/20 00:01:43;;;;;;;;;;;;;;;21.18;50.25;101812.59;5137917;27;20511;-38
2022/09/20 00:04:09;;;;;;;;;;;;;;;21.20;50.41;101806.75;5137807;27;20304;-39
2022/09/20 00:06:35;;;;;;;;;;;;;;;21.19;50.44;101805.94;5122533;27;19927;-39
2022/09/20 00:09:02;;;;;;;;;;;;;;;21.18;50.30;101809.00;5141226;27;19976;-39
2022/09/20 00:11:29;;;;;;;;;;;;;;;21.19;50.30;101802.34;5119407;27;20014;-38
2022/09/20 00:13:55;;;;;;;;;;;;;;;21.18;50.30;101801.50;5139830;27;20421;-39
2022/09/20 00:16:23;;;;;;;;;;;;;;;21.19;50.33;101807.88;5138977;27;20273;-38
2022/09/20 00:18:49;;;;;;;;;;;;;;;21.21;50.27;101811.22;5139974;27;20380;-38
2022/09/20 00:21:16;;;;;;;;;;;;;;;21.18;50.31;101818.13;5123086;27;19969;-39
2022/09/20 00:23:42;;;;;;;;;;;;;;;21.19;50.50;101805.09;5122141;27;19958;-38
2022/09/20 00:26:08;;;;;;;;;;;;;;;21.17;50.36;101805.41;5121563;27;19966;-38
2022/09/20 00:28:33;;;;;;;;;;;;;;;21.19;50.28;101805.09;5140010;27;19931;-39
2022/09/20 00:30:59;;;;;;;;;;;;;;;21.19;50.36;101814.25;5138716;27;19924;-38
2022/09/20 00:35:06;;;;;;;;;;;;;;;21.17;50.30;101816.47;5140890;27;20022;-38
2022/09/20 00:36:11;;;;;;;;;;;;;;;21.19;50.33;101814.25;5119958;27;20440;-38
2022/09/20 00:38:36;;;;;;;;;;;;;;;21.19;50.17;101819.78;5139092;27;19923;-39
2022/09/20 00:41:02;;;;;;;;;;;;;;;21.18;50.43;101809.81;5142716;27;19991;-38
2022/09/20 00:43:44;;;;;;;;;;;;;;;21.17;50.27;101810.09;5142729;27;19923;-38
2022/09/20 00:46:16;;;;;;;;;;;;;;;21.17;50.22;101810.94;5117752;27;20018;-38
2022/09/20 00:48:42;;;;;;;;;;;;;;;21.18;50.33;101811.75;5121274;27;19923;-38
2022/09/20 00:51:09;;;;;;;;;;;;;;;21.17;50.31;101818.41;5141626;27;19946;-38
2022/09/20 00:53:37;;;;;;;;;;;;;;;21.15;50.28;101815.91;5144300;27;20073;-38
2022/09/20 00:56:04;;;;;;;;;;;;;;;21.17;50.38;101819.25;5142156;27;20019;-37
2022/09/20 00:58:30;;;;;;;;;;;;;;;21.15;50.28;101810.34;5143574;27;20026;-37
2022/09/20 01:00:56;;;;;;;;;;;;;;;21.18;50.27;101809.00;5143584;27;19985;-37
2022/09/20 01:03:22;;;;;;;;;;;;;;;21.16;50.34;101811.22;5144456;27;19931;-38
2022/09/20 01:05:47;;;;;;;;;;;;;;;21.18;50.32;101814.53;5136642;27;19996;-38
2022/09/20 01:08:13;;;;;;;;;;;;;;;21.17;50.22;101810.94;5141720;27;19923;-39
2022/09/20 01:10:39;;;;;;;;;;;;;;;21.16;50.30;101806.50;5143460;27;19923;-37
2022/09/20 01:13:04;;;;;;;;;;;;;;;21.16;50.25;101808.44;5124296;27;20034;-39
2022/09/20 01:15:30;;;;;;;;;;;;;;;21.16;50.24;101802.91;5141588;27;20269;-39
2022/09/20 01:17:56;;;;;;;;;;;;;;;21.15;50.47;101810.34;5127744;27;19935;-38
2022/09/20 01:20:26;;;;;;;;;;;;;;;21.16;50.37;101805.69;5144372;27;19931;-39
2022/09/20 01:22:56;;;;;;;;;;;;;;;21.17;50.17;101808.16;5139137;27;20010;-38
2022/09/20 01:25:25;;;;;;;;;;;;;;;21.17;50.23;101805.41;5140391;27;19973;-38
2022/09/20 01:27:51;;;;;;;;;;;;;;;21.18;50.20;101800.69;5138692;27;20014;-38
2022/09/20 01:30:25;;;;;;;;;;;;;;;21.16;50.28;101814.81;5145190;27;19973;-38
2022/09/20 01:32:56;;;;;;;;;;;;;;;21.17;50.22;101807.34;5139346;27;20029;-39
2022/09/20 01:35:22;;;;;;;;;;;;;;;21.17;50.11;101808.16;5127073;27;20009;-38
2022/09/20 01:38:07;;;;;;;;;;;;;;;21.15;50.35;101804.00;5139108;27;20346;-38
2022/09/20 01:40:53;;;;;;;;;;;;;;;21.16;50.34;101811.22;5132439;27;20199;-39
2022/09/20 01:43:24;;;;;;;;;;;;;;;21.16;50.20;101814.00;5127281;27;20022;-38
2022/09/20 01:45:50;;;;;;;;;;;;;;;21.16;50.04;101811.22;5126524;27;20069;-39
2022/09/20 01:48:20;;;;;;;;;;;;;;;21.16;50.34;101808.44;5138892;27;19979;-38
2022/09/20 01:51:06;;;;;;;;;;;;;;;21.16;50.24;101814.00;5144911;27;19973;-38
2022/09/20 01:53:37;;;;;;;;;;;;;;;21.15;50.31;101815.91;5129552;27;19947;-39
2022/09/20 01:56:09;;;;;;;;;;;;;;;21.16;50.24;101816.75;5122024;27;20370;-38
2022/09/20 01:58:54;;;;;;;;;;;;;;;21.15;50.41;101821.44;5141603;27;20017;-38
2022/09/20 02:02:00;;;;;;;;;;;;;;;21.16;50.24;101816.75;5111608;27;19927;-38
2022/09/20 02:04:46;;;;;;;;;;;;;;;21.15;50.33;101821.44;5141298;27;20392;-38
2022/09/20 02:07:31;;;;;;;;;;;;;;;21.16;50.33;101819.53;5125091;27;20005;-38
2022/09/20 02:10:06;;;;;;;;;;;;;;;21.13;50.35;101820.88;5124823;27;20382;-38
2022/09/20 02:12:37;;;;;;;;;;;;;;;21.14;50.26;101830.84;5146309;27;19923;-39
2022/09/20 02:15:23;;;;;;;;;;;;;;;21.14;50.33;101822.53;5125724;27;19974;-39
2022/09/20 02:18:09;;;;;;;;;;;;;;;21.14;50.42;101821.72;5122729;27;20435;-38
2022/09/20 02:20:52;;;;;;;;;;;;;;;21.12;50.34;101819.22;5125716;28;20011;-39
2022/09/20 02:23:38;;;;;;;;;;;;;;;21.14;50.33;101819.78;5125764;27;19975;-39
2022/09/20 02:26:09;;;;;;;;;;;;;;;21.13;50.26;101820.06;5126647;27;20026;-39
2022/09/20 02:28:55;;;;;;;;;;;;;;;21.14;50.22;101814.25;5119823;27;20009;-38
2022/09/20 02:31:27;;;;;;;;;;;;;;;21.14;50.35;101817.00;5124463;27;20071;-38
2022/09/20 02:34:03;;;;;;;;;;;;;;;21.14;50.16;101811.47;5141039;27;20370;-38
2022/09/20 02:36:38;;;;;;;;;;;;;;;21.12;50.25;101808.16;5143805;27;19942;-38
2022/09/20 02:39:20;;;;;;;;;;;;;;;21.13;50.28;101807.03;5146427;27;20004;-40
2022/09/20 02:41:50;;;;;;;;;;;;;;;21.13;50.15;101807.03;5142572;27;19977;-38
2022/09/20 02:44:25;;;;;;;;;;;;;;;21.13;50.32;101807.03;5121611;27;20022;-38
2022/09/20 02:47:01;;;;;;;;;;;;;;;21.14;50.27;101810.63;5123580;27;20026;-38
2022/09/20 02:49:46;;;;;;;;;;;;;;;21.12;50.14;101802.63;5120833;27;20345;-39
2022/09/20 02:52:32;;;;;;;;;;;;;;;21.14;50.38;101810.63;5122627;27;20018;-39
2022/09/20 02:55:06;;;;;;;;;;;;;;;21.13;50.25;101806.22;5130653;27;19979;-38
2022/09/20 02:57:35;;;;;;;;;;;;;;;21.12;50.20;101810.09;5137800;27;20411;-38
2022/09/20 03:00:03;;;;;;;;;;;;;;;21.13;50.35;101798.72;5136945;27;20018;-38
2022/09/20 03:05:13;;;;;;;;;;;;;;;21.11;50.30;101803.69;5169130;27;19934;-36
2022/09/20 03:07:43;;;;;;;;;;;;;;;21.12;50.04;101797.06;5166085;27;20013;-37
2022/09/20 03:10:28;;;;;;;;;;;;;;;21.12;50.31;101799.84;5167584;27;20009;-36
2022/09/20 03:12:58;;;;;;;;;;;;;;;21.12;50.17;101801.78;5151611;27;20018;-37
2022/09/20 03:15:39;;;;;;;;;;;;;;;21.13;50.22;101795.13;5166714;27;20021;-35
2022/09/20 03:18:07;;;;;;;;;;;;;;;21.12;50.29;101799.84;5149288;27;20015;-36
2022/09/20 03:20:52;;;;;;;;;;;;;;;21.12;50.13;101801.78;5168042;27;20476;-36
2022/09/20 03:23:22;;;;;;;;;;;;;;;21.12;50.34;101799.00;5151324;27;20065;-36
2022/09/20 03:26:08;;;;;;;;;;;;;;;21.11;50.35;101795.38;5167697;27;20071;-36
2022/09/20 03:28:45;;;;;;;;;;;;;;;21.13;50.16;101792.38;5147600;27;20022;-37
2022/09/20 03:31:15;;;;;;;;;;;;;;;21.11;50.15;101794.56;5166244;27;20046;-36
2022/09/20 03:33:54;;;;;;;;;;;;;;;21.13;50.33;101797.91;5164931;27;19974;-36
2022/09/20 03:36:39;;;;;;;;;;;;;;;21.11;50.27;101800.09;5166854;27;19998;-36
2022/09/20 03:39:13;;;;;;;;;;;;;;;21.11;50.24;101806.47;5150293;27;19967;-36
2022/09/20 03:41:41;;;;;;;;;;;;;;;21.12;50.27;101808.16;5149194;27;19981;-36
2022/09/20 03:44:26;;;;;;;;;;;;;;;21.13;50.27;101801.50;5167571;27;20010;-36
2022/09/20 03:46:56;;;;;;;;;;;;;;;21.11;50.30;101794.56;5148577;27;19978;-37
2022/09/20 03:49:41;;;;;;;;;;;;;;;21.10;50.09;101804.81;5147370;27;19962;-36
2022/09/20 03:52:27;;;;;;;;;;;;;;;21.10;50.36;101802.03;5153271;27;20018;-36
2022/09/20 03:54:57;;;;;;;;;;;;;;;21.12;50.25;101804.56;5147909;27;20021;-36
2022/09/20 03:57:42;;;;;;;;;;;;;;;21.10;50.33;101807.56;5166464;27;20043;-36
2022/09/20 04:00:28;;;;;;;;;;;;;;;21.11;50.33;101808.41;5151909;27;19978;-36
2022/09/20 04:02:58;;;;;;;;;;;;;;;21.11;50.11;101814.78;5150591;27;20007;-36
2022/09/20 04:05:44;;;;;;;;;;;;;;;21.11;50.33;101816.72;5167235;27;20030;-36
2022/09/20 04:08:15;;;;;;;;;;;;;;;21.12;50.35;101818.41;5152617;27;19980;-36
2022/09/20 04:11:01;;;;;;;;;;;;;;;21.10;50.19;101812.28;5148383;27;20373;-36
2022/09/20 04:13:33;;;;;;;;;;;;;;;21.11;50.28;101813.94;5154520;27;20027;-36
2022/09/20 04:16:19;;;;;;;;;;;;;;;21.10;50.08;101817.81;5155825;27;20025;-36
2022/09/20 04:18:48;;;;;;;;;;;;;;;21.11;50.29;101817.53;5136336;27;19923;-37
2022/09/20 04:21:24;;;;;;;;;;;;;;;21.10;50.25;101817.81;5152576;27;20378;-36
2022/09/20 04:24:09;;;;;;;;;;;;;;;21.11;50.16;101803.69;5134830;27;20063;-37
2022/09/20 04:26:36;;;;;;;;;;;;;;;21.09;50.21;101811.47;5136194;27;20457;-36
2022/09/20 04:29:22;;;;;;;;;;;;;;;21.10;50.13;101815.88;5133965;27;20084;-36
2022/09/20 04:31:50;;;;;;;;;;;;;;;21.09;50.39;101808.69;5136735;27;19981;-36
2022/09/20 04:36:27;;;;;;;;;;;;;;;21.11;50.17;101805.63;5151514;27;19934;-36
2022/09/20 04:37:21;;;;;;;;;;;;;;;21.11;50.39;101805.63;5122029;27;20010;-38
2022/09/20 04:39:49;;;;;;;;;;;;;;;21.11;50.12;101808.41;5134901;27;20002;-36
2022/09/20 04:42:23;;;;;;;;;;;;;;;21.10;50.19;101823.38;5132890;27;20072;-37
2022/09/20 04:45:08;;;;;;;;;;;;;;;21.10;50.19;101815.06;5152277;27;20353;-39
2022/09/20 04:47:54;;;;;;;;;;;;;;;21.09;50.31;101816.16;5135097;27;20009;-36
2022/09/20 04:50:40;;;;;;;;;;;;;;;21.08;50.26;101818.13;5135023;27;19984;-36
2022/09/20 04:53:17;;;;;;;;;;;;;;;21.07;50.15;101822.00;5133983;27;20027;-36
2022/09/20 04:55:45;;;;;;;;;;;;;;;21.07;50.17;101829.44;5129468;27;20021;-36
2022/09/20 04:58:13;;;;;;;;;;;;;;;21.07;50.03;101827.53;5134711;27;20010;-37
2022/09/20 05:00:59;;;;;;;;;;;;;;;21.07;50.12;101826.66;5151535;27;19969;-37
2022/09/20 05:03:45;;;;;;;;;;;;;;;21.07;50.07;101826.66;5133712;27;19977;-36
2022/09/20 05:06:30;;;;;;;;;;;;;;;21.07;50.04;101833.06;5136872;27;20039;-36
2022/09/20 05:09:16;;;;;;;;;;;;;;;21.08;50.19;101833.91;5134571;27;20011;-36
2022/09/20 05:11:46;;;;;;;;;;;;;;;21.07;49.98;101832.22;5136095;27;20049;-36
2022/09/20 05:14:21;;;;;;;;;;;;;;;21.07;49.95;101837.75;5149725;27;20386;-36
2022/09/20 05:16:56;;;;;;;;;;;;;;;21.07;50.08;101838.63;5148772;27;19927;-37
2022/09/20 05:19:41;;;;;;;;;;;;;;;21.07;50.03;101834.97;5147625;27;19923;-37
2022/09/20 05:22:11;;;;;;;;;;;;;;;21.05;50.06;101841.63;5148909;27;19962;-36
2022/09/20 05:24:42;;;;;;;;;;;;;;;21.08;50.01;101840.28;5149974;27;20301;-37
2022/09/20 05:27:28;;;;;;;;;;;;;;;21.09;49.86;101852.19;5148173;27;19979;-37
2022/09/20 05:29:58;;;;;;;;;;;;;;;21.09;49.80;101841.09;5136555;27;20341;-36
2022/09/20 05:32:36;;;;;;;;;;;;;;;21.07;49.97;101840.53;5129011;27;19927;-37
2022/09/20 05:35:22;;;;;;;;;;;;;;;21.08;50.03;101840.28;5149531;27;20014;-37
2022/09/20 05:37:49;;;;;;;;;;;;;;;20.72;50.01;101848.41;5131318;27;20238;-37
2022/09/20 05:40:31;;;;;;;;;;;;;;;20.94;49.64;101862.09;5129246;27;20402;-37
2022/09/20 05:43:12;;;;;;;;;;;;;;;21.01;49.44;101857.13;5145691;27;19931;-36
2022/09/20 05:45:58;;;;;;;;;;;;;;;21.04;49.68;101853.00;5146807;27;19930;-40
2022/09/20 05:48:30;;;;;;;;;;;;;;;21.05;49.55;101860.19;5136746;27;19934;-38
2022/09/20 05:50:59;;;;;;;;;;;;;;;21.07;49.76;101858.00;5131884;27;20022;-37
2022/09/20 05:53:49;;;;;;;;;;;;;;;21.08;49.96;101859.66;5126859;27;19931;-37
2022/09/20 05:56:35;;;;;;;;;;;;;;;21.08;49.96;101865.19;5123142;27;20061;-39
2022/09/20 06:02:12;;;;;;;;;;;;;;;21.10;49.82;101865.75;5164681;27;20025;-36
2022/09/20 06:04:41;;;;;;;;;;;;;;;21.09;49.98;101861.31;5147326;27;19970;-37
2022/09/20 06:07:14;;;;;;;;;;;;;;;21.12;49.91;101860.78;5152824;27;20070;-36
2022/09/20 06:10:00;;;;;;;;;;;;;;;21.13;49.98;101867.97;5165333;27;20005;-40
2022/09/20 06:12:44;;;;;;;;;;;;;;;21.09;49.92;101871.56;5153065;27;19984;-37
2022/09/20 06:15:14;;;;;;;;;;;;;;;21.10;49.45;101870.44;5158564;27;20006;-39
2022/09/20 06:17:42;;;;;;;;;;;;;;;21.13;49.73;101867.16;5137791;27;20043;-36
2022/09/20 06:20:12;;;;;;;;;;;;;;;21.15;49.78;101870.47;5154445;27;20080;-39
2022/09/20 06:22:39;;;;;;;;;;;;;;;21.12;49.69;101874.63;5165077;27;21522;-36
2022/09/20 06:25:11;;;;;;;;;;;;;;;21.09;49.38;101874.34;5160827;27;19998;-35
2022/09/20 06:27:38;;;;;;;;;;;;;;;21.08;49.40;101869.91;5151246;27;20009;-36
2022/09/20 06:30:05;;;;;;;;;;;;;;;21.07;49.53;101869.06;5144177;27;20005;-37
2022/09/20 06:32:31;;;;;;;;;;;;;;;21.08;49.69;101873.50;5163501;27;21210;-35
2022/09/20 06:34:57;;;;;;;;;;;;;;;21.13;49.92;101873.50;5159315;27;19924;-36
2022/09/20 06:43:18;;;;;;;;;;;;;;;21.15;50.46;101878.78;5129657;27;20370;-36
2022/09/20 06:45:44;;;;;;;;;;;;;;;21.16;50.37;101874.94;5150630;27;20060;-36
2022/09/20 06:48:12;;;;;;;;;;;;;;;21.14;50.52;101872.41;5131857;27;19930;-36
2022/09/20 06:50:38;;;;;;;;;;;;;;;21.14;50.63;101882.66;5131031;27;20042;-36
2022/09/20 06:53:04;;;;;;;;;;;;;;;21.16;50.41;101881.28;5150213;27;20700;-37
2022/09/20 06:55:31;;;;;;;;;;;;;;;21.15;50.40;101879.59;5123761;27;19927;-37
2022/09/20 06:57:56;;;;;;;;;;;;;;;21.16;50.40;101880.47;5138399;27;20405;-37
2022/09/20 07:00:22;;;;;;;;;;;;;;;21.16;50.38;101892.38;5151680;27;19938;-36
2022/09/20 07:02:48;;;;;;;;;;;;;;;20.89;51.03;101889.72;5112424;27;19931;-41
2022/09/20 07:05:14;;;;;;;;;;;;;;;20.52;51.98;101884.28;5135125;27;19934;-43
2022/09/20 07:07:42;;;;;;;;;;;;;;;20.93;50.85;101892.81;5142065;27;19923;-36
2022/09/20 07:10:10;;;;;;;;;;;;;;;21.04;50.66;101889.81;5149304;27;19934;-39
2022/09/20 07:12:36;;;;;;;;;;;;;;;21.09;50.50;101896.50;5117947;27;20026;-37
2022/09/20 09:32:36;;;;;;;;;;;;;;;21.28;48.59;101933.69;5148499;27;19934;-37
2022/09/20 09:35:21;;;;;;;;;;;;;;;20.62;46.34;101936.09;5156899;27;20026;-43
2022/09/20 09:37:55;;;;;;;;;;;;;;;20.85;45.58;101937.63;5136609;27;20381;-37
2022/09/20 09:40:21;;;;;;;;;;;;;;;21.05;46.18;101930.25;5123885;27;19931;-35
2022/09/20 09:42:49;;;;;;;;;;;;;;;21.09;46.14;101932.50;5145206;27;19935;-36
2022/09/20 09:45:25;;;;;;;;;;;;;;;21.11;45.99;101939.41;5144177;27;20359;-38
2022/09/20 09:47:51;;;;;;;;;;;;;;;21.14;46.15;101932.50;5149441;27;20285;-38
2022/09/20 09:50:21;;;;;;;;;;;;;;;21.18;46.66;101923.41;5153599;27;20268;-37
2022/09/20 09:53:04;;;;;;;;;;;;;;;21.16;46.44;101931.16;5125942;27;20010;-38
2022/09/20 09:55:34;;;;;;;;;;;;;;;21.17;46.43;101921.72;5152128;27;20018;-37
2022/09/20 09:58:02;;;;;;;;;;;;;;;21.16;46.56;101928.38;5149911;27;20014;-37
2022/09/20 10:00:28;;;;;;;;;;;;;;;21.19;46.63;101935.31;5126551;27;20009;-37
2022/09/20 10:03:12;;;;;;;;;;;;;;;21.19;46.79;101935.31;5146442;27;19937;-37
2022/09/20 10:05:57;;;;;;;;;;;;;;;21.17;46.54;101938.34;5146770;27;20014;-37
2022/09/20 10:11:06;;;;;;;;;;;;;;;21.18;46.57;101939.19;5147368;27;20395;-35
2022/09/20 10:13:43;;;;;;;;;;;;;;;21.17;46.60;101943.91;5112020;27;20360;-36
2022/09/20 10:16:13;;;;;;;;;;;;;;;21.19;46.77;101938.91;5125762;27;20054;-37
2022/09/20 10:18:59;;;;;;;;;;;;;;;21.18;46.90;101947.50;5136821;27;19931;-37
2022/09/20 10:21:30;;;;;;;;;;;;;;;21.20;46.93;101945.28;5105716;27;19931;-37
2022/09/20 10:23:58;;;;;;;;;;;;;;;21.18;46.91;101961.34;5126230;27;20036;-37
2022/09/20 10:26:38;;;;;;;;;;;;;;;21.22;47.05;101957.75;5126406;27;19923;-37
2022/09/20 10:29:07;;;;;;;;;;;;;;;21.23;46.92;101958.59;5128038;27;19932;-38
2022/09/20 10:31:46;;;;;;;;;;;;;;;21.20;46.95;101959.13;5125749;27;20345;-37
2022/09/20 10:34:16;;;;;;;;;;;;;;;21.21;47.17;101949.72;5127494;27;20080;-36
2022/09/20 10:36:44;;;;;;;;;;;;;;;21.23;47.23;101953.06;5129112;27;20362;-36
2022/09/20 10:39:12;;;;;;;;;;;;;;;21.19;47.07;101958.28;5115367;27;20133;-36
2022/09/20 10:44:33;;;;;;;;;;;;;;;21.21;47.78;101956.09;5106027;27;19997;-36
2022/09/20 10:47:19;;;;;;;;;;;;;;;21.22;47.65;101960.53;5120234;27;20010;-37
2022/09/20 10:49:59;;;;;;;;;;;;;;;21.17;47.47;101949.44;5122861;27;19931;-37
2022/09/20 10:52:44;;;;;;;;;;;;;;;21.19;47.27;101954.69;5126757;27;19976;-37
2022/09/20 10:55:19;;;;;;;;;;;;;;;21.18;47.41;101955.81;5114739;27;20342;-36
2022/09/20 10:57:51;;;;;;;;;;;;;;;21.17;47.49;101954.16;5133427;27;20010;-36
2022/09/20 11:00:25;;;;;;;;;;;;;;;21.16;46.73;101955.25;5130632;27;19927;-37
2022/09/20 11:02:54;;;;;;;;;;;;;;;21.17;46.61;101959.69;5115934;27;19992;-37
2022/09/20 11:05:39;;;;;;;;;;;;;;;21.17;46.87;101957.75;5131628;27;20337;-37
2022/09/20 11:08:10;;;;;;;;;;;;;;;21.16;46.25;101956.09;5129646;27;20014;-36
2022/09/20 11:10:56;;;;;;;;;;;;;;;21.20;47.14;101967.44;5129610;27;19994;-36
2022/09/20 11:13:41;;;;;;;;;;;;;;;21.17;47.16;101960.50;5109656;27;19931;-37
2022/09/20 11:16:12;;;;;;;;;;;;;;;21.19;46.75;101954.69;5108493;27;20014;-36
2022/09/20 11:18:43;;;;;;;;;;;;;;;21.21;47.50;101956.09;5127323;27;20013;-37
2022/09/20 11:21:17;;;;;;;;;;;;;;;21.19;46.93;101963.84;5120793;27;20059;-37
2022/09/20 11:24:01;;;;;;;;;;;;;;;21.18;46.69;101959.41;5112535;28;21557;-37
2022/09/20 11:26:30;;;;;;;;;;;;;;;21.18;47.12;101953.03;5116386;28;20018;-38
2022/09/20 11:28:58;;;;;;;;;;;;;;;21.19;47.07;101955.53;5117506;27;20416;-37
2022/09/20 11:31:29;;;;;;;;;;;;;;;21.17;46.95;101960.50;5114473;28;19986;-37
2022/09/20 11:33:58;;;;;;;;;;;;;;;21.18;46.92;101964.94;5112064;27;19980;-37
2022/09/20 11:36:29;;;;;;;;;;;;;;;21.21;47.21;101960.81;5113392;27;20179;-37
2022/09/20 11:38:56;;;;;;;;;;;;;;;21.23;47.26;101966.91;5116096;27;20006;-36
2022/09/20 11:41:25;;;;;;;;;;;;;;;21.23;47.15;101966.91;5122124;27;20393;-37
2022/09/20 11:43:50;;;;;;;;;;;;;;;21.21;47.22;101958.88;5108771;27;20748;-36
2022/09/20 11:46:36;;;;;;;;;;;;;;;21.21;46.94;101977.44;5108515;28;19939;-36
2022/09/20 11:49:02;;;;;;;;;;;;;;;21.18;46.90;101972.44;5102093;28;20618;-36
2022/09/20 11:51:49;;;;;;;;;;;;;;;21.19;46.86;101974.91;5114588;28;21272;-36
2022/09/20 11:54:18;;;;;;;;;;;;;;;21.21;46.48;101966.34;5099424;27;19970;-37
2022/09/20 11:56:52;;;;;;;;;;;;;;;21.20;46.32;101967.44;5111922;27;20373;-37
2022/09/20 11:59:21;;;;;;;;;;;;;;;21.19;46.86;101971.31;5115261;27;20269;-36
2022/09/20 12:01:47;;;;;;;;;;;;;;;21.18;46.51;101969.66;5091376;28;19985;-36
2022/09/20 12:04:22;;;;;;;;;;;;;;;21.20;46.48;101973.84;5113461;27;19927;-37
2022/09/20 12:07:14;;;;;;;;;;;;;;;21.21;46.83;101969.13;5112643;28;19923;-37
2022/09/20 12:09:44;;;;;;;;;;;;;;;21.18;46.20;101969.66;5113957;27;19930;-36
2022/09/20 12:12:29;;;;;;;;;;;;;;;21.17;46.13;101960.50;5094902;28;19986;-41
2022/09/20 12:14:55;;;;;;;;;;;;;;;21.17;46.61;101963.28;5092970;28;19927;-38
2022/09/20 12:17:41;;;;;;;;;;;;;;;21.19;46.57;101966.59;5108193;28;20589;-37
2022/09/20 12:20:26;;;;;;;;;;;;;;;21.18;46.53;101967.72;5094393;27;19938;-37
2022/09/20 12:22:52;;;;;;;;;;;;;;;21.21;46.24;101971.91;5098297;27;20360;-38
2022/09/20 12:25:34;;;;;;;;;;;;;;;21.24;46.40;101977.75;5116503;27;20029;-38
2022/09/20 12:28:00;;;;;;;;;;;;;;;21.25;46.68;101967.50;5093150;28;20030;-37
2022/09/20 12:30:25;;;;;;;;;;;;;;;21.23;46.28;101972.44;5117398;28;19931;-37
2022/09/20 12:32:53;;;;;;;;;;;;;;;21.21;45.85;101971.91;5118539;27;19928;-38
2022/09/20 12:38:30;;;;;;;;;;;;;;;21.23;46.51;101964.97;5175510;27;21600;-35
2022/09/20 12:41:00;;;;;;;;;;;;;;;21.27;46.84;101960.56;5131620;27;19973;-37
2022/09/20 12:43:26;;;;;;;;;;;;;;;21.22;46.72;101970.78;5134033;27;19931;-35
2022/09/20 12:45:53;;;;;;;;;;;;;;;21.29;46.66;101966.66;5142141;27;20041;-35
2022/09/20 12:48:19;;;;;;;;;;;;;;;21.32;46.57;101961.72;5149646;27;19974;-36
2022/09/20 12:53:57;;;;;;;;;;;;;;;21.29;46.48;101961.13;5134677;27;20022;-36
2022/09/20 12:56:26;;;;;;;;;;;;;;;21.33;46.40;101955.06;5145383;27;20018;-36
2022/09/20 12:58:53;;;;;;;;;;;;;;;21.32;46.82;101958.94;5150596;27;19923;-36
2022/09/20 13:04:15;;;;;;;;;;;;;;;21.33;46.84;101950.38;5159670;27;20010;-36
2022/09/20 13:06:41;;;;;;;;;;;;;;;21.36;47.20;101947.03;5121925;27;19985;-37
2022/09/20 13:09:07;;;;;;;;;;;;;;;21.35;47.13;101948.16;5133861;27;19931;-36
2022/09/20 13:11:41;;;;;;;;;;;;;;;21.35;46.80;101950.09;5138816;27;20495;-36
2022/09/20 13:14:09;;;;;;;;;;;;;;;21.34;47.05;101952.03;5144825;27;20479;-35
2022/09/20 13:19:15;;;;;;;;;;;;;;;21.35;47.42;101962.00;5160686;27;20425;-36
2022/09/20 13:21:43;;;;;;;;;;;;;;;21.38;47.78;101953.16;5136904;27;20064;-35
2022/09/20 13:24:10;;;;;;;;;;;;;;;21.36;47.24;101946.22;5154244;27;20021;-36
2022/09/20 13:26:39;;;;;;;;;;;;;;;21.33;46.92;101955.06;5159069;27;20026;-35
2022/09/20 13:29:06;;;;;;;;;;;;;;;21.34;47.46;101957.59;5163845;27;19933;-35
2022/09/20 13:31:32;;;;;;;;;;;;;;;21.34;47.14;101956.75;5162739;27;20072;-39
2022/09/20 13:34:18;;;;;;;;;;;;;;;21.34;47.28;101946.50;5156569;27;19923;-35
2022/09/20 13:36:43;;;;;;;;;;;;;;;21.32;47.39;101959.78;5139258;27;20425;-35
2022/09/20 13:39:18;;;;;;;;;;;;;;;21.28;47.24;101942.81;5156305;27;20347;-35
2022/09/20 13:41:44;;;;;;;;;;;;;;;21.28;46.91;101951.13;5151463;27;20010;-39
2022/09/20 13:44:13;;;;;;;;;;;;;;;21.16;46.78;101942.22;5143022;27;20177;-36
2022/09/20 13:46:42;;;;;;;;;;;;;;;21.25;46.51;101942.56;5136548;27;20405;-36
2022/09/20 13:49:10;;;;;;;;;;;;;;;20.85;45.92;101932.91;5113330;27;20753;-36
2022/09/20 13:51:36;;;;;;;;;;;;;;;21.12;46.07;101941.09;5138877;27;20021;-37
2022/09/20 13:54:21;;;;;;;;;;;;;;;21.22;46.11;101938.38;5121897;27;21032;-36
2022/09/20 13:56:46;;;;;;;;;;;;;;;21.28;46.18;101940.03;5134882;27;20042;-35
2022/09/20 13:59:16;;;;;;;;;;;;;;;21.27;46.08;101935.63;5123194;27;19931;-35
2022/09/20 14:01:48;;;;;;;;;;;;;;;21.29;46.49;101933.44;5138596;27;19938;-37
2022/09/20 14:04:14;;;;;;;;;;;;;;;21.30;46.72;101932.31;5117389;27;19931;-36
2022/09/20 14:06:39;;;;;;;;;;;;;;;21.29;46.48;101930.66;5134616;27;20015;-35
2022/09/20 14:09:05;;;;;;;;;;;;;;;21.30;46.59;101928.72;5139033;27;20391;-36
2022/09/20 14:11:36;;;;;;;;;;;;;;;21.30;46.61;101928.72;5118682;27;19923;-36
2022/09/20 14:14:02;;;;;;;;;;;;;;;21.29;46.83;101927.88;5131395;27;19969;-36
2022/09/20 14:16:28;;;;;;;;;;;;;;;21.33;46.92;101933.75;5117497;27;20075;-38
2022/09/20 14:18:54;;;;;;;;;;;;;;;21.31;46.67;101927.59;5137976;27;20421;-35
2022/09/20 14:21:21;;;;;;;;;;;;;;;21.32;46.92;101931.22;5115273;27;20058;-35
2022/09/20 14:23:52;;;;;;;;;;;;;;;21.30;47.09;101929.53;5135407;27;20014;-36
2022/09/20 14:29:17;;;;;;;;;;;;;;;21.35;46.80;101930.69;5150981;27;20316;-37
2022/09/20 14:31:43;;;;;;;;;;;;;;;21.32;47.06;101931.22;5125084;27;20014;-36
2022/09/20 14:34:10;;;;;;;;;;;;;;;21.33;47.27;101924.56;5148441;27;19983;-36
2022/09/20 14:36:35;;;;;;;;;;;;;;;21.33;48.05;101916.28;5145041;27;20301;-36
2022/09/20 14:39:02;;;;;;;;;;;;;;;21.33;48.04;101925.44;5154271;27;19976;-36
2022/09/20 14:41:35;;;;;;;;;;;;;;;21.34;47.64;101916.00;5150798;27;19958;-35
2022/09/20 14:44:01;;;;;;;;;;;;;;;21.30;46.72;101915.69;5152061;27;20014;-35
2022/09/20 14:46:29;;;;;;;;;;;;;;;21.40;47.18;101916.84;5126394;27;20325;-36
2022/09/20 14:48:57;;;;;;;;;;;;;;;21.43;47.51;101913.56;5148780;27;20027;-35
2022/09/20 14:51:24;;;;;;;;;;;;;;;21.51;49.77;101913.03;5149378;27;20300;-35
2022/09/20 14:53:51;;;;;;;;;;;;;;;21.47;49.27;101920.22;5150430;27;20026;-35
2022/09/20 14:56:32;;;;;;;;;;;;;;;21.50;49.10;101917.75;5148171;27;19981;-35
2022/09/20 14:59:17;;;;;;;;;;;;;;;21.42;47.93;101920.22;5157643;27;19966;-36
2022/09/20 15:01:43;;;;;;;;;;;;;;;21.40;48.11;101919.63;5134109;27;19970;-35
2022/09/20 15:04:14;;;;;;;;;;;;;;;21.42;48.66;101925.75;5155698;27;19962;-35
2022/09/20 15:06:39;;;;;;;;;;;;;;;21.42;48.06;101922.97;5156778;27;19962;-35
2022/09/20 15:09:05;;;;;;;;;;;;;;;21.39;47.04;101915.19;5156189;27;19934;-35
2022/09/20 15:11:31;;;;;;;;;;;;;;;21.41;47.36;101924.88;5153746;27;19926;-36
2022/09/20 15:13:56;;;;;;;;;;;;;;;21.42;47.77;101914.66;5152898;27;19923;-35
2022/09/20 15:16:22;;;;;;;;;;;;;;;21.42;47.61;101912.72;5148701;27;19968;-35
2022/09/20 15:18:47;;;;;;;;;;;;;;;21.42;47.92;101921.03;5158807;27;19931;-35
2022/09/20 15:21:13;;;;;;;;;;;;;;;21.38;47.13;101922.69;5157853;27;19931;-35
2022/09/20 15:23:39;;;;;;;;;;;;;;;21.33;46.80;101928.22;5158366;27;20309;-35
2022/09/20 15:26:05;;;;;;;;;;;;;;;21.30;47.33;101928.72;5137153;27;20021;-35
2022/09/20 15:28:32;;;;;;;;;;;;;;;21.30;47.34;101925.94;5138343;27;19927;-35
2022/09/20 15:30:57;;;;;;;;;;;;;;;21.29;47.53;101930.66;5158688;27;20014;-35
2022/09/20 15:33:23;;;;;;;;;;;;;;;21.30;47.32;101931.47;5135888;27;19927;-36
2022/09/20 15:35:48;;;;;;;;;;;;;;;21.27;47.18;101919.00;5157319;27;19939;-35
2022/09/20 15:38:15;;;;;;;;;;;;;;;21.28;47.35;101928.97;5138761;27;19923;-35
2022/09/20 15:40:41;;;;;;;;;;;;;;;21.30;47.29;101931.47;5125820;27;20422;-35
2022/09/20 15:43:08;;;;;;;;;;;;;;;21.32;48.74;101923.75;5120316;27;19923;-36
2022/09/20 15:45:34;;;;;;;;;;;;;;;21.31;47.35;101922.06;5103852;28;19981;-37
2022/09/20 15:48:01;;;;;;;;;;;;;;;21.27;47.24;101916.22;5098235;28;20477;-35
2022/09/20 15:50:27;;;;;;;;;;;;;;;21.28;47.33;101928.97;5121209;28;20018;-35
2022/09/20 15:52:52;;;;;;;;;;;;;;;21.28;47.49;101925.38;5101952;28;21327;-35